الصفحة الرئيسية
METAR-TAF:

METAR-TAF

مطار :

مطار هارتسفيلد جاكسون

أتلانتا, جورجيا, الولايات المتحدة

دائرة عرض: 33-38-25N, خط طول: 084-25-37W, ارتفاع: 313 متر

مراقبة الطقس الحالي

تاريخ ووقت الإصدار 46 دقيقة قبل الساعة 14:52UTC
ريح 9 عقدة من الشمال الغربي
درجة الحرارة 4°درجة مئوية
الرطوبة 65%
ضغط 1022 hPa
الرؤية: 16.1 كم
غيوم قليلة على ارتفاع 18000 قدم
غيوم متفرقة على ارتفاع 25000 قدم
غيوم متفرقة على ارتفاع 30000 قدم

METAR: KATL 161452Z 32009KT 10SM FEW180 SCT250 SCT300 04/M02 A3019 RMK AO2 SLP232 T00441017 51012

زمن: 10:38 (15:38 UTC)

توقعات

تاريخ ووقت الإصدار 1ساعة و 57 دقيقة قبل الساعة 13:41UTC
التوقعات صالحة من16 الساعة 14 UTC إلى 17 الساعة 18 UTC
ريح 9 عقدة من الغرب/الشمال الغربي
الرؤية: 10 كم
غيوم متفرقة على ارتفاع 20000 قدم
من 17 الساعة 0300 UTC
ريح 4 عقدة من الشمال الغربي
الرؤية: 10 كم
سماء صافية
من 17 الساعة 1500 UTC
ريح 4 عقدة من الشمال الغربي
الرؤية: 10 كم
سماء صافية

TAF: KATL 161341Z 1614/1718 30009KT P6SM SCT200 FM170300 32004KT P6SM SKC FM171500 31004KT P6SM SKC

أرصاد الطقس والتوقعات من أكثر من 4000 مطار (تقارير الطقس للمطار METAR والتنبؤ بالطقس بالمطارTAF).

المحطات المتاحة هي النقط الصفراء والحمراء على الخريطة.

حرك المؤشر فوق النقطة لمعرفة اسم المحطة.

ثم انقر لمعرفة أرصاد وتوقعات الطقس.

لتغيير الخارطة: اضغط على الأزرار الخضراء مع رمز الصليب الأسود للتكبير. على الزر الأخضر مع شرطة للتصغير، أو على الأسهم الخضراء للخرائط المجاورة.


METAR-TAF: